Gerd Maersk — OYGM2 — position and weather

sailwx.info

Track history (hours):
 
Tides and Currents Weather Stations Pressure Air Temp Water Temp Dewpoint Dewpoint Depression Visibility Wind Speed Wind Dir Waves Ship Positions

Gerd Maersk

Last reported at 2015-Feb-14 03:31 UTC. Time now 2015-Mar-02 20:36 UTC.
Position N 35°60' W 005°12'.
Warning: this ship's position is 16 days out of date.

Length 367 m; draft 14.1 m.

Type: Ship (hazmat cat A). MMSI: 220415000.

Date/timePositionNaut miles runAvg speedWind from/ knotsBaromVisibWave heightAir tempDewpointWater temp
2015-Feb-14 03:31N 35°60' W 005°12'24818.9
2015-Feb-13 14:25N 37°51' W 009°50'2121.3
2015-Feb-13 13:25N 38°12' W 009°57'1921.3
2015-Feb-13 12:33N 38°30' W 010°02'2320.9
2015-Feb-13 11:28N 38°52' W 010°06'78219.4
2015-Feb-11 19:08N 50°19' W 001°21'3622.8
2015-Feb-11 17:32N 50°28' W 000°26'2321.7
2015-Feb-11 16:30N 50°33' E 000°08'2020.8
2015-Feb-11 15:34N 50°39' E 000°38'2020.0
2015-Feb-11 14:34N 50°49' E 001°05'2020.0
2015-Feb-11 13:33N 51°03' E 001°28'2221.9
2015-Feb-11 12:34N 51°20' E 001°50'2222.1
2015-Feb-11 11:34N 51°37' E 002°12'2221.6
2015-Feb-11 10:33N 51°52' E 002°37'2020.4
2015-Feb-11 09:34N 52°02' E 003°06'1918.7
2015-Feb-11 08:34N 52°03' E 003°36'1212.1
2015-Feb-11 07:33N 52°02' E 003°55'6 6.5
2015-Feb-11 06:34N 51°58' E 004°04'1 0.6
2015-Feb-11 05:27N 51°57' E 004°03'0 0.0
2015-Feb-11 04:33N 51°57' E 004°03'0 0.0
2015-Feb-11 03:33N 51°57' E 004°03'0 0.0
2015-Feb-11 02:33N 51°57' E 004°03'0 0.0
2015-Feb-11 01:33N 51°57' E 004°03'0 0.0
2015-Feb-11 00:33N 51°57' E 004°03'0 0.0
2015-Feb-10 23:33N 51°57' E 004°03'0 0.0
2015-Feb-10 22:33N 51°57' E 004°03'0 0.0
2015-Feb-10 21:33N 51°57' E 004°03'0 0.0
2015-Feb-10 20:33N 51°57' E 004°03'0 0.0
2015-Feb-10 19:33N 51°57' E 004°03'0 0.0
2015-Feb-10 18:33N 51°57' E 004°03'0 0.0
2015-Feb-10 17:33N 51°57' E 004°03'0 0.0
2015-Feb-10 16:33N 51°57' E 004°03'0 0.0
2015-Feb-10 15:33N 51°57' E 004°03'0 0.0
2015-Feb-10 14:33N 51°57' E 004°03'0 0.0
2015-Feb-10 13:33N 51°57' E 004°03'0 0.0
2015-Feb-10 12:27N 51°57' E 004°03'0 0.0
2015-Feb-10 11:33N 51°57' E 004°03'0 0.0
2015-Feb-10 10:33N 51°57' E 004°03'0 0.0
2015-Feb-10 09:33N 51°57' E 004°03'0 0.0
2015-Feb-10 08:33N 51°57' E 004°03'0 0.0
2015-Feb-10 07:33N 51°57' E 004°03'0 0.0
2015-Feb-10 06:30N 51°57' E 004°03'1 0.7
2015-Feb-10 05:33N 51°58' E 004°03'2 1.9
2015-Feb-10 04:32N 51°57' E 004°00'0 0.0
2015-Feb-10 03:33N 51°57' E 004°00'0 0.0
2015-Feb-10 02:27N 51°57' E 004°00'0 0.0
2015-Feb-10 01:30N 51°57' E 004°00'0 0.0
2015-Feb-10 00:33N 51°57' E 004°00'0 0.0
2015-Feb-09 23:33N 51°57' E 004°00'0 0.0
2015-Feb-09 22:33N 51°57' E 004°00'0 0.0
2015-Feb-09 21:30N 51°57' E 004°00'0 0.0
2015-Feb-09 20:21N 51°57' E 004°00'0 0.0
2015-Feb-09 19:24N 51°57' E 004°00'0 0.0
2015-Feb-09 18:33N 51°57' E 004°00'0 0.0
2015-Feb-09 17:30N 51°57' E 004°00'0 0.0
2015-Feb-09 16:30N 51°57' E 004°00'0 0.0
2015-Feb-09 15:21N 51°57' E 004°00'0 0.0
2015-Feb-09 14:27N 51°57' E 004°00'0 0.0
2015-Feb-09 13:30N 51°57' E 004°00'0 0.0
2015-Feb-09 12:33N 51°57' E 004°00'0 0.0
2015-Feb-09 11:27N 51°57' E 004°00'0 0.0
2015-Feb-09 10:33N 51°57' E 004°00'0 0.0
2015-Feb-09 09:33N 51°57' E 004°00'0 0.0
2015-Feb-09 08:30N 51°57' E 004°00'0 0.0
2015-Feb-09 07:30N 51°57' E 004°00'0 0.0
2015-Feb-09 06:27N 51°57' E 004°00'0 0.3
2015-Feb-09 05:33N 51°58' E 004°00'3 2.6
2015-Feb-09 04:33N 51°59' E 004°04'10 9.7
2015-Feb-09 03:33N 51°60' E 003°48'7 7.3
2015-Feb-09 02:34N 52°07' E 003°46'1817.6
2015-Feb-09 01:33N 52°25' E 003°50'1818.2
2015-Feb-09 00:34N 52°42' E 003°55'5417.9
2015-Feb-08 21:33N 53°31' E 004°35'1817.8
2015-Feb-08 20:33N 53°47' E 004°46'1818.3
2015-Feb-08 19:32N 54°05' E 004°55'1818.4
2015-Feb-08 18:32N 54°22' E 005°07'27817.4
2015-Feb-08 02:34N 57°50' E 010°37'1616.3
2015-Feb-08 01:34N 57°45' E 011°05'1716.9
2015-Feb-08 00:33N 57°36' E 011°33'1010.1
2015-Feb-07 23:34N 57°41' E 011°49'1 1.3
2015-Feb-07 22:31N 57°41' E 011°52'0 0.0
2015-Feb-07 21:31N 57°41' E 011°52'0 0.0
2015-Feb-07 20:31N 57°41' E 011°52'0 0.0
2015-Feb-07 19:28N 57°41' E 011°52'0 0.0
2015-Feb-07 18:31N 57°41' E 011°52'0 0.0
2015-Feb-07 17:31N 57°41' E 011°52'0 0.0
2015-Feb-07 16:28N 57°41' E 011°52'0 0.0
2015-Feb-07 15:31N 57°41' E 011°52'0 0.0
2015-Feb-07 14:31N 57°41' E 011°52'0 0.0
2015-Feb-07 13:31N 57°41' E 011°52'0 0.0
2015-Feb-07 12:31N 57°41' E 011°52'0 0.0
2015-Feb-07 11:31N 57°41' E 011°52'0 0.0
2015-Feb-07 10:31N 57°41' E 011°52'0 0.0
2015-Feb-07 09:31N 57°41' E 011°52'0 0.0
2015-Feb-07 08:31N 57°41' E 011°52'0 0.0
2015-Feb-07 07:28N 57°41' E 011°52'0 0.0
2015-Feb-07 06:31N 57°41' E 011°52'0 0.0
2015-Feb-07 05:31N 57°41' E 011°52'0 0.0
2015-Feb-07 04:31N 57°41' E 011°52'0 0.5
2015-Feb-07 03:33N 57°41' E 011°51'9 8.6
2015-Feb-07 02:33N 57°36' E 011°38'10 9.8
2015-Feb-07 01:34N 57°40' E 011°21'1514.8
2015-Feb-07 00:33N 57°47' E 010°57'1817.7
2015-Feb-06 23:33N 57°50' E 010°24'1818.0
2015-Feb-06 22:33N 57°47' E 009°50'1818.0
2015-Feb-06 21:33N 57°39' E 009°20'1919.0
2015-Feb-06 20:32N 57°30' E 008°48'1918.7
2015-Feb-06 19:32N 57°17' E 008°22'2019.1
2015-Feb-06 18:30N 57°03' E 007°56'14317.9
2015-Feb-06 10:30N 54°43' E 007°09'1717.8
2015-Feb-06 09:33N 54°27' E 007°16'1817.8
2015-Feb-06 08:33N 54°11' E 007°30'1818.0
2015-Feb-06 07:32N 53°54' E 007°44'1616.7
2015-Feb-06 06:33N 53°47' E 008°09'1616.2
2015-Feb-06 05:34N 53°37' E 008°30'1 0.9
2015-Feb-06 04:31N 53°36' E 008°31'0 0.0
2015-Feb-06 03:31N 53°36' E 008°31'0 0.0
2015-Feb-06 02:31N 53°36' E 008°31'0 0.0
2015-Feb-06 01:31N 53°36' E 008°31'0 0.0
2015-Feb-06 00:34N 53°36' E 008°31'0 0.0
2015-Feb-05 23:34N 53°36' E 008°31'0 0.0
2015-Feb-05 22:31N 53°36' E 008°31'0 0.0
2015-Feb-05 21:34N 53°36' E 008°31'0 0.0
2015-Feb-05 20:31N 53°36' E 008°31'0 0.0
2015-Feb-05 19:34N 53°36' E 008°31'0 0.0
2015-Feb-05 18:34N 53°36' E 008°31'0 0.0
2015-Feb-05 17:31N 53°36' E 008°31'0 0.0
2015-Feb-05 16:31N 53°36' E 008°31'0 0.0
2015-Feb-05 15:34N 53°36' E 008°31'0 0.0
2015-Feb-05 14:31N 53°36' E 008°31'0 0.0
2015-Feb-05 13:34N 53°36' E 008°31'0 0.0
2015-Feb-05 12:31N 53°36' E 008°31'0 0.0
2015-Feb-05 11:31N 53°36' E 008°31'0 0.0
2015-Feb-05 10:34N 53°36' E 008°31'0 0.0
2015-Feb-05 09:31N 53°36' E 008°31'0 0.0
2015-Feb-05 08:34N 53°36' E 008°31'0 0.0
2015-Feb-05 07:31N 53°36' E 008°31'0 0.0
2015-Feb-05 06:34N 53°36' E 008°31'0 0.0
2015-Feb-05 05:31N 53°36' E 008°31'0 0.0
2015-Feb-05 04:31N 53°36' E 008°31'0 0.0
2015-Feb-05 03:25N 53°36' E 008°31'0 0.0
2015-Feb-05 02:31N 53°36' E 008°31'0 0.0
2015-Feb-05 01:31N 53°36' E 008°31'0 0.0
2015-Feb-05 00:34N 53°36' E 008°31'0 0.0
2015-Feb-04 23:31N 53°36' E 008°31'0 0.0
2015-Feb-04 22:34N 53°36' E 008°31'0 0.0
2015-Feb-04 21:34N 53°36' E 008°31'0 0.4
2015-Feb-04 20:34N 53°36' E 008°31'8 8.1
2015-Feb-04 19:33N 53°41' E 008°21'1414.1
2015-Feb-04 18:33N 53°50' E 008°03'1312.7
2015-Feb-04 17:33N 53°53' E 007°42'11 9.0
2015-Feb-04 16:22N 53°53' E 007°24'4 4.6
2015-Feb-04 15:32N 53°53' E 007°17'6 5.8
2015-Feb-04 14:33N 53°51' E 007°08'7 6.1
2015-Feb-04 13:24N 53°50' E 006°57'28 7.2
2015-Feb-04 09:30N 53°43' E 006°10'8 8.4
2015-Feb-04 08:30N 53°40' E 005°57'7 7.7
2015-Feb-04 07:33N 53°38' E 005°45'8 7.6
2015-Feb-04 06:33N 53°35' E 005°33'7 7.5
2015-Feb-04 05:33N 53°33' E 005°21'7 7.4
2015-Feb-04 04:33N 53°30' E 005°09'7 6.7
2015-Feb-04 03:33N 53°28' E 004°59'  
Track history (hours):
 
Tides and Currents Weather Stations Pressure Air Temp Water Temp Dewpoint Dewpoint Depression Visibility Wind Speed Wind Dir Waves Ship Positions

Gerd Maersk

Last reported at 2015-Feb-14 03:31 UTC. Time now 2015-Mar-02 20:36 UTC.
Position N 35°60' W 005°12'.
Warning: this ship's position is 16 days out of date.

Length 367 m; draft 14.1 m.

Type: Ship (hazmat cat A). MMSI: 220415000.

Date/timePositionNaut miles runAvg speedWind from/ knotsBaromVisibWave heightAir tempDewpointWater temp
2015-Feb-14 03:31N 35°60' W 005°12'24818.9
2015-Feb-13 14:25N 37°51' W 009°50'2121.3
2015-Feb-13 13:25N 38°12' W 009°57'1921.3
2015-Feb-13 12:33N 38°30' W 010°02'2320.9
2015-Feb-13 11:28N 38°52' W 010°06'78219.4
2015-Feb-11 19:08N 50°19' W 001°21'3622.8
2015-Feb-11 17:32N 50°28' W 000°26'2321.7
2015-Feb-11 16:30N 50°33' E 000°08'2020.8
2015-Feb-11 15:34N 50°39' E 000°38'2020.0
2015-Feb-11 14:34N 50°49' E 001°05'2020.0
2015-Feb-11 13:33N 51°03' E 001°28'2221.9
2015-Feb-11 12:34N 51°20' E 001°50'2222.1
2015-Feb-11 11:34N 51°37' E 002°12'2221.6
2015-Feb-11 10:33N 51°52' E 002°37'2020.4
2015-Feb-11 09:34N 52°02' E 003°06'1918.7
2015-Feb-11 08:34N 52°03' E 003°36'1212.1
2015-Feb-11 07:33N 52°02' E 003°55'6 6.5
2015-Feb-11 06:34N 51°58' E 004°04'1 0.6
2015-Feb-11 05:27N 51°57' E 004°03'0 0.0
2015-Feb-11 04:33N 51°57' E 004°03'0 0.0
2015-Feb-11 03:33N 51°57' E 004°03'0 0.0
2015-Feb-11 02:33N 51°57' E 004°03'0 0.0
2015-Feb-11 01:33N 51°57' E 004°03'0 0.0
2015-Feb-11 00:33N 51°57' E 004°03'0 0.0
2015-Feb-10 23:33N 51°57' E 004°03'0 0.0
2015-Feb-10 22:33N 51°57' E 004°03'0 0.0
2015-Feb-10 21:33N 51°57' E 004°03'0 0.0
2015-Feb-10 20:33N 51°57' E 004°03'0 0.0
2015-Feb-10 19:33N 51°57' E 004°03'0 0.0
2015-Feb-10 18:33N 51°57' E 004°03'0 0.0
2015-Feb-10 17:33N 51°57' E 004°03'0 0.0
2015-Feb-10 16:33N 51°57' E 004°03'0 0.0
2015-Feb-10 15:33N 51°57' E 004°03'0 0.0
2015-Feb-10 14:33N 51°57' E 004°03'0 0.0
2015-Feb-10 13:33N 51°57' E 004°03'0 0.0
2015-Feb-10 12:27N 51°57' E 004°03'0 0.0
2015-Feb-10 11:33N 51°57' E 004°03'0 0.0
2015-Feb-10 10:33N 51°57' E 004°03'0 0.0
2015-Feb-10 09:33N 51°57' E 004°03'0 0.0
2015-Feb-10 08:33N 51°57' E 004°03'0 0.0
2015-Feb-10 07:33N 51°57' E 004°03'0 0.0
2015-Feb-10 06:30N 51°57' E 004°03'1 0.7
2015-Feb-10 05:33N 51°58' E 004°03'2 1.9
2015-Feb-10 04:32N 51°57' E 004°00'0 0.0
2015-Feb-10 03:33N 51°57' E 004°00'0 0.0
2015-Feb-10 02:27N 51°57' E 004°00'0 0.0
2015-Feb-10 01:30N 51°57' E 004°00'0 0.0
2015-Feb-10 00:33N 51°57' E 004°00'0 0.0
2015-Feb-09 23:33N 51°57' E 004°00'0 0.0
2015-Feb-09 22:33N 51°57' E 004°00'0 0.0
2015-Feb-09 21:30N 51°57' E 004°00'0 0.0
2015-Feb-09 20:21N 51°57' E 004°00'0 0.0
2015-Feb-09 19:24N 51°57' E 004°00'0 0.0
2015-Feb-09 18:33N 51°57' E 004°00'0 0.0
2015-Feb-09 17:30N 51°57' E 004°00'0 0.0
2015-Feb-09 16:30N 51°57' E 004°00'0 0.0
2015-Feb-09 15:21N 51°57' E 004°00'0 0.0
2015-Feb-09 14:27N 51°57' E 004°00'0 0.0
2015-Feb-09 13:30N 51°57' E 004°00'0 0.0
2015-Feb-09 12:33N 51°57' E 004°00'0 0.0
2015-Feb-09 11:27N 51°57' E 004°00'0 0.0
2015-Feb-09 10:33N 51°57' E 004°00'0 0.0
2015-Feb-09 09:33N 51°57' E 004°00'0 0.0
2015-Feb-09 08:30N 51°57' E 004°00'0 0.0
2015-Feb-09 07:30N 51°57' E 004°00'0 0.0
2015-Feb-09 06:27N 51°57' E 004°00'0 0.3
2015-Feb-09 05:33N 51°58' E 004°00'3 2.6
2015-Feb-09 04:33N 51°59' E 004°04'10 9.7
2015-Feb-09 03:33N 51°60' E 003°48'7 7.3
2015-Feb-09 02:34N 52°07' E 003°46'1817.6
2015-Feb-09 01:33N 52°25' E 003°50'1818.2
2015-Feb-09 00:34N 52°42' E 003°55'5417.9
2015-Feb-08 21:33N 53°31' E 004°35'1817.8
2015-Feb-08 20:33N 53°47' E 004°46'1818.3
2015-Feb-08 19:32N 54°05' E 004°55'1818.4
2015-Feb-08 18:32N 54°22' E 005°07'27817.4
2015-Feb-08 02:34N 57°50' E 010°37'1616.3
2015-Feb-08 01:34N 57°45' E 011°05'1716.9
2015-Feb-08 00:33N 57°36' E 011°33'1010.1
2015-Feb-07 23:34N 57°41' E 011°49'1 1.3
2015-Feb-07 22:31N 57°41' E 011°52'0 0.0
2015-Feb-07 21:31N 57°41' E 011°52'0 0.0
2015-Feb-07 20:31N 57°41' E 011°52'0 0.0
2015-Feb-07 19:28N 57°41' E 011°52'0 0.0
2015-Feb-07 18:31N 57°41' E 011°52'0 0.0
2015-Feb-07 17:31N 57°41' E 011°52'0 0.0
2015-Feb-07 16:28N 57°41' E 011°52'0 0.0
2015-Feb-07 15:31N 57°41' E 011°52'0 0.0
2015-Feb-07 14:31N 57°41' E 011°52'0 0.0
2015-Feb-07 13:31N 57°41' E 011°52'0 0.0
2015-Feb-07 12:31N 57°41' E 011°52'0 0.0
2015-Feb-07 11:31N 57°41' E 011°52'0 0.0
2015-Feb-07 10:31N 57°41' E 011°52'0 0.0
2015-Feb-07 09:31N 57°41' E 011°52'0 0.0
2015-Feb-07 08:31N 57°41' E 011°52'0 0.0
2015-Feb-07 07:28N 57°41' E 011°52'0 0.0
2015-Feb-07 06:31N 57°41' E 011°52'0 0.0
2015-Feb-07 05:31N 57°41' E 011°52'0 0.0
2015-Feb-07 04:31N 57°41' E 011°52'0 0.5
2015-Feb-07 03:33N 57°41' E 011°51'9 8.6
2015-Feb-07 02:33N 57°36' E 011°38'10 9.8
2015-Feb-07 01:34N 57°40' E 011°21'1514.8
2015-Feb-07 00:33N 57°47' E 010°57'1817.7
2015-Feb-06 23:33N 57°50' E 010°24'1818.0
2015-Feb-06 22:33N 57°47' E 009°50'1818.0
2015-Feb-06 21:33N 57°39' E 009°20'1919.0
2015-Feb-06 20:32N 57°30' E 008°48'1918.7
2015-Feb-06 19:32N 57°17' E 008°22'2019.1
2015-Feb-06 18:30N 57°03' E 007°56'14317.9
2015-Feb-06 10:30N 54°43' E 007°09'1717.8
2015-Feb-06 09:33N 54°27' E 007°16'1817.8
2015-Feb-06 08:33N 54°11' E 007°30'1818.0
2015-Feb-06 07:32N 53°54' E 007°44'1616.7
2015-Feb-06 06:33N 53°47' E 008°09'1616.2
2015-Feb-06 05:34N 53°37' E 008°30'1 0.9
2015-Feb-06 04:31N 53°36' E 008°31'0 0.0
2015-Feb-06 03:31N 53°36' E 008°31'0 0.0
2015-Feb-06 02:31N 53°36' E 008°31'0 0.0
2015-Feb-06 01:31N 53°36' E 008°31'0 0.0
2015-Feb-06 00:34N 53°36' E 008°31'0 0.0
2015-Feb-05 23:34N 53°36' E 008°31'0 0.0
2015-Feb-05 22:31N 53°36' E 008°31'0 0.0
2015-Feb-05 21:34N 53°36' E 008°31'0 0.0
2015-Feb-05 20:31N 53°36' E 008°31'0 0.0
2015-Feb-05 19:34N 53°36' E 008°31'0 0.0
2015-Feb-05 18:34N 53°36' E 008°31'0 0.0
2015-Feb-05 17:31N 53°36' E 008°31'0 0.0
2015-Feb-05 16:31N 53°36' E 008°31'0 0.0
2015-Feb-05 15:34N 53°36' E 008°31'0 0.0
2015-Feb-05 14:31N 53°36' E 008°31'0 0.0
2015-Feb-05 13:34N 53°36' E 008°31'0 0.0
2015-Feb-05 12:31N 53°36' E 008°31'0 0.0
2015-Feb-05 11:31N 53°36' E 008°31'0 0.0
2015-Feb-05 10:34N 53°36' E 008°31'0 0.0
2015-Feb-05 09:31N 53°36' E 008°31'0 0.0
2015-Feb-05 08:34N 53°36' E 008°31'0 0.0
2015-Feb-05 07:31N 53°36' E 008°31'0 0.0
2015-Feb-05 06:34N 53°36' E 008°31'0 0.0
2015-Feb-05 05:31N 53°36' E 008°31'0 0.0
2015-Feb-05 04:31N 53°36' E 008°31'0 0.0
2015-Feb-05 03:25N 53°36' E 008°31'0 0.0
2015-Feb-05 02:31N 53°36' E 008°31'0 0.0
2015-Feb-05 01:31N 53°36' E 008°31'0 0.0
2015-Feb-05 00:34N 53°36' E 008°31'0 0.0
2015-Feb-04 23:31N 53°36' E 008°31'0 0.0
2015-Feb-04 22:34N 53°36' E 008°31'0 0.0
2015-Feb-04 21:34N 53°36' E 008°31'0 0.4
2015-Feb-04 20:34N 53°36' E 008°31'8 8.1
2015-Feb-04 19:33N 53°41' E 008°21'1414.1
2015-Feb-04 18:33N 53°50' E 008°03'1312.7
2015-Feb-04 17:33N 53°53' E 007°42'11 9.0
2015-Feb-04 16:22N 53°53' E 007°24'4 4.6
2015-Feb-04 15:32N 53°53' E 007°17'6 5.8
2015-Feb-04 14:33N 53°51' E 007°08'7 6.1
2015-Feb-04 13:24N 53°50' E 006°57'28 7.2
2015-Feb-04 09:30N 53°43' E 006°10'8 8.4
2015-Feb-04 08:30N 53°40' E 005°57'7 7.7
2015-Feb-04 07:33N 53°38' E 005°45'8 7.6
2015-Feb-04 06:33N 53°35' E 005°33'7 7.5
2015-Feb-04 05:33N 53°33' E 005°21'7 7.4
2015-Feb-04 04:33N 53°30' E 005°09'7 6.7
2015-Feb-04 03:33N 53°28' E 004°59'  

Dump ship's entire track history